Etusivu
METAR-TAF:

METAR-TAF

Lentoasemat :

Mafikeng, Etelä-Afrikka

Leveyspiiri: 25-47S, Pituuspiiri: 025-32E, korkeus merenpinnasta: 1281 m

Tämänhetkinen sää

Tämä raportti tehtiin 52 minuuttia sitten, kello 12.00 UTC
Tuuli 11 kn pohjoisesta
Lämpötila 27°C
Kosteus 6%
Ilmanpaine 1021 hPa
Näkyvyys 10 km tai enemmän
ei pilviä alle 1500 m:ssä eikä cumulonimbus-pilviä

METAR: FAMM 131200Z 35011KT CAVOK 27/M13 Q1021 NOSIG

Aika: 14:52 (12:52 UTC)

Sääennuste

Tämä raportti tehtiin 3 tuntia ja 52 minuuttia sitten, kello 09.00 UTC
Ennuste voimassa 13. päivästä klo 10 UTC - 13. päivään klo 18 UTC
Tuuli 13 kn pohjoisesta
Näkyvyys 10 km tai enemmän
ei pilviä alle 1500 m:ssä eikä cumulonimbus-pilviä

TAF: FAMM 130900Z 1310/1318 35013KT CAVOK TX28/1312Z TN06/1318Z

Säähavainnot ja -ennusteet yli 4000 lentoasemalta (METAR- ja TAF-raportit).

Käytössä olevat sääasemat on merkitty karttaan keltaisilla ja punaisilla pisteillä.

Aseta hiiri pisteen päälle nähdäksesi sääaseman nimen.

Klikkaa sitten nähdäksesi säähavainnot ja -ennusteet.

Kartan vaihtaminen: klikkaa mustalla rastilla varustettuja vihreitä pisteitä, niin voit zoomata sisään; viivalla varustettua vihreää pistettä, niin voit zoomata ulos tai vihreitä nuolia, niin pääset viereisille kartoille.


METAR-TAF: